Time;durP1;ratioP1;P1;durP2;ratioP2;P2;SDS_P1;SDS_P2;PMS_P1;PMS_P2;Temp;Humidity;BMP_temperature;BMP_pressure;BME280_temperature;BME280_humidity;BME280_pressure;Samples;Min_cycle;Max_cycle;Signal;HPM_P1;HPM_P2
2021/08/23 00:00:28;;;;;;;2.90;2.60;;;;;;;15.33;100.00;100853.72;5017310;28;20283;-72
2021/08/23 00:02:53;;;;;;;3.43;3.20;;;;;;;15.31;100.00;100952.34;5017302;28;20208;-72
2021/08/23 00:05:19;;;;;;;2.87;2.67;;;;;;;15.29;100.00;100916.09;5017294;28;20512;-72
2021/08/23 00:07:44;;;;;;;3.90;3.33;;;;;;;15.24;100.00;100904.47;5015950;28;20192;-71
2021/08/23 00:10:10;;;;;;;3.47;3.17;;;;;;;15.19;100.00;100905.47;5017124;28;20215;-72
2021/08/23 00:12:36;;;;;;;5.97;3.10;;;;;;;15.15;100.00;100894.28;5017468;28;20295;-71
2021/08/23 00:15:03;;;;;;;3.90;3.47;;;;;;;15.17;100.00;100889.25;5017004;28;20202;-72
2021/08/23 00:17:28;;;;;;;4.30;3.93;;;;;;;15.18;100.00;100888.13;5017146;28;20260;-72
2021/08/23 00:19:53;;;;;;;3.90;3.60;;;;;;;15.17;100.00;100896.72;5017087;28;20482;-71
2021/08/23 00:22:35;;;;;;;4.53;3.97;;;;;;;15.22;100.00;100896.53;5017006;28;20200;-72
2021/08/23 00:25:02;;;;;;;4.77;4.37;;;;;;;15.25;100.00;100915.16;5017256;28;20161;-72
2021/08/23 00:27:29;;;;;;;5.00;4.37;;;;;;;15.29;100.00;100918.84;5017032;28;20272;-71
2021/08/23 00:29:55;;;;;;;6.10;4.10;;;;;;;15.33;100.00;100935.50;5017005;28;20177;-71
2021/08/23 00:32:20;;;;;;;4.90;4.40;;;;;;;15.36;100.00;100951.38;5016936;28;20385;-72
2021/08/23 00:34:46;;;;;;;4.93;4.53;;;;;;;15.40;100.00;100963.34;5016281;28;20638;-72
2021/08/23 00:37:12;;;;;;;5.03;4.57;;;;;;;15.45;100.00;100965.91;5016412;28;20646;-71
2021/08/23 00:39:38;;;;;;;8.07;5.37;;;;;;;15.49;100.00;100983.38;5012446;28;20173;-72
2021/08/23 00:42:04;;;;;;;6.37;5.70;;;;;;;15.51;100.00;100983.06;5013340;28;20215;-72
2021/08/23 00:44:31;;;;;;;6.43;5.93;;;;;;;15.58;100.00;100994.34;5013130;28;20165;-72
2021/08/23 00:46:58;;;;;;;6.63;6.07;;;;;;;15.60;100.00;101006.69;5013187;28;20177;-72
2021/08/23 00:49:24;;;;;;;6.87;6.33;;;;;;;15.66;100.00;101007.31;5013235;28;20177;-72
2021/08/23 00:51:51;;;;;;;6.83;6.23;;;;;;;15.69;100.00;101014.91;5013290;28;20199;-72
2021/08/23 00:54:17;;;;;;;7.53;7.00;;;;;;;15.68;100.00;101016.06;5012737;28;20550;-72
2021/08/23 00:56:42;;;;;;;11.73;6.40;;;;;;;15.71;100.00;101018.13;5013010;28;20185;-71
2021/08/23 00:59:08;;;;;;;7.37;6.67;;;;;;;15.70;100.00;101025.59;5012988;28;20176;-72
2021/08/23 01:01:58;;;;;;;7.13;6.43;;;;;;;15.69;100.00;101035.00;5012978;28;20266;-72
2021/08/23 01:04:42;;;;;;;7.80;7.07;;;;;;;15.72;100.00;101166.56;5012782;28;20189;-72
2021/08/23 01:07:12;;;;;;;7.37;6.77;;;;;;;15.71;100.00;101020.91;5012849;28;20600;-72
2021/08/23 01:09:42;;;;;;;8.60;6.40;;;;;;;15.81;100.00;100992.16;5012749;28;20172;-71
2021/08/23 01:12:09;;;;;;;7.60;6.73;;;;;;;15.83;100.00;100960.38;5012795;28;20184;-72
2021/08/23 01:14:34;;;;;;;6.70;6.20;;;;;;;15.84;100.00;100969.44;5012441;28;20181;-72
2021/08/23 01:17:04;;;;;;;11.57;6.47;;;;;;;15.93;100.00;100970.22;5011509;28;20191;-72
2021/08/23 01:19:31;;;;;;;6.83;6.13;;;;;;;15.75;100.00;100952.97;5012702;28;20643;-72
2021/08/23 01:22:01;;;;;;;7.17;6.47;;;;;;;15.66;100.00;100969.56;5012502;28;20208;-72
2021/08/23 01:24:33;;;;;;;6.60;6.00;;;;;;;15.84;100.00;100975.75;5012285;28;20204;-72
2021/08/23 01:27:02;;;;;;;6.57;6.07;;;;;;;15.74;100.00;100965.94;5012657;28;20654;-72
2021/08/23 01:29:39;;;;;;;6.40;5.80;;;;;;;15.67;100.00;100965.66;5012416;28;20259;-72
2021/08/23 01:32:28;;;;;;;6.43;5.83;;;;;;;15.80;100.00;100983.09;5012554;28;20482;-72
2021/08/23 01:34:56;;;;;;;6.70;6.20;;;;;;;15.71;100.00;100966.59;5011849;28;20292;-72
2021/08/23 01:37:23;;;;;;;7.37;6.67;;;;;;;15.52;100.00;100962.63;5012354;28;20180;-72
2021/08/23 01:39:49;;;;;;;7.43;6.83;;;;;;;15.72;100.00;100967.41;5012367;28;20576;-72
2021/08/23 01:42:15;;;;;;;8.03;7.43;;;;;;;15.83;100.00;100973.34;5012169;28;20236;-72
2021/08/23 01:44:41;;;;;;;10.80;7.10;;;;;;;15.77;100.00;100970.78;5011889;28;20172;-72
2021/08/23 01:47:07;;;;;;;7.33;6.63;;;;;;;15.61;100.00;100969.72;5012022;28;20235;-72
2021/08/23 01:49:33;;;;;;;6.83;6.33;;;;;;;15.50;100.00;100971.22;5011820;28;20211;-72
2021/08/23 01:51:58;;;;;;;6.60;6.00;;;;;;;15.47;100.00;100966.38;5012054;28;20176;-72
2021/08/23 01:54:24;;;;;;;7.33;6.67;;;;;;;15.38;100.00;100968.38;5011548;28;20183;-72
2021/08/23 01:56:49;;;;;;;7.33;6.50;;;;;;;15.30;100.00;100961.75;5011989;28;20671;-71
2021/08/23 01:59:14;;;;;;;7.30;6.70;;;;;;;15.37;100.00;100964.81;5012352;28;20654;-72
2021/08/23 02:01:41;;;;;;;7.53;6.97;;;;;;;15.39;100.00;100961.72;5011835;28;20212;-72
2021/08/23 02:04:07;;;;;;;7.70;7.13;;;;;;;15.28;100.00;100964.03;5011737;28;20217;-72
2021/08/23 02:06:32;;;;;;;7.97;6.67;;;;;;;15.27;100.00;100965.16;5010393;28;20628;-72
2021/08/23 02:08:58;;;;;;;8.27;6.37;;;;;;;15.22;100.00;100959.84;5011744;28;20177;-72
2021/08/23 02:11:24;;;;;;;6.30;5.80;;;;;;;15.24;100.00;100959.53;5011739;28;20211;-72
2021/08/23 02:13:50;;;;;;;5.60;5.20;;;;;;;15.13;100.00;100962.63;5011285;28;20180;-72
2021/08/23 02:16:15;;;;;;;7.50;5.93;;;;;;;15.11;100.00;100958.59;5011533;28;20655;-72
2021/08/23 02:18:40;;;;;;;6.67;5.97;;;;;;;15.04;100.00;100955.53;5011609;28;20180;-71
2021/08/23 02:21:06;;;;;;;6.23;5.63;;;;;;;15.02;100.00;100944.84;5011400;28;20196;-72
2021/08/23 02:23:31;;;;;;;7.13;4.97;;;;;;;15.06;100.00;100956.84;5011478;28;20176;-72
2021/08/23 02:25:57;;;;;;;8.10;5.53;;;;;;;15.02;100.00;100949.53;5011156;28;20180;-72
2021/08/23 02:28:22;;;;;;;7.73;5.90;;;;;;;15.04;100.00;100952.78;5011728;28;20385;-72
2021/08/23 02:30:48;;;;;;;5.80;5.40;;;;;;;14.96;100.00;100957.19;5011467;28;20263;-72
2021/08/23 02:33:13;;;;;;;9.70;5.73;;;;;;;14.99;100.00;100955.72;5011301;28;20706;-72
2021/08/23 02:35:39;;;;;;;5.93;5.43;;;;;;;15.07;100.00;100957.66;5010967;28;20234;-72
2021/08/23 02:38:06;;;;;;;5.90;5.40;;;;;;;14.97;100.00;100952.50;5011247;28;20211;-72
2021/08/23 02:40:32;;;;;;;6.30;5.70;;;;;;;14.96;100.00;100959.13;5011179;28;20540;-72
2021/08/23 02:42:57;;;;;;;4.70;4.40;;;;;;;14.94;100.00;100961.41;5009691;28;20219;-72
2021/08/23 02:45:22;;;;;;;6.13;5.37;;;;;;;14.94;100.00;100964.97;5010858;28;20618;-72
2021/08/23 02:47:48;;;;;;;5.43;4.93;;;;;;;14.87;100.00;100964.63;5011115;28;20180;-72
2021/08/23 02:50:13;;;;;;;6.50;6.00;;;;;;;14.93;100.00;100968.84;5011058;28;20184;-72
2021/08/23 02:52:39;;;;;;;8.80;4.37;;;;;;;15.02;100.00;100966.06;5011048;28;20179;-72
2021/08/23 02:55:05;;;;;;;4.77;4.37;;;;;;;15.11;100.00;100969.59;5010245;28;20256;-71
2021/08/23 02:57:31;;;;;;;4.57;4.27;;;;;;;15.16;100.00;100970.22;5010859;28;20223;-72
2021/08/23 02:59:56;;;;;;;5.87;5.37;;;;;;;15.10;100.00;100976.25;5011120;28;20176;-72
2021/08/23 03:02:22;;;;;;;4.93;4.47;;;;;;;15.05;100.00;100979.19;5010172;28;20282;-72
2021/08/23 03:04:47;;;;;;;5.23;4.83;;;;;;;14.95;100.00;100974.84;5010474;28;20185;-72
2021/08/23 03:07:12;;;;;;;4.57;4.17;;;;;;;14.91;100.00;100981.31;5010796;28;20180;-72
2021/08/23 03:09:38;;;;;;;5.33;4.83;;;;;;;14.84;100.00;100990.88;5011251;28;20263;-71
2021/08/23 03:12:04;;;;;;;5.57;4.77;;;;;;;14.91;100.00;100993.13;5008310;28;20211;-72
2021/08/23 03:14:29;;;;;;;4.80;4.50;;;;;;;15.00;100.00;100998.59;5009488;28;20568;-72
2021/08/23 03:16:54;;;;;;;5.60;4.40;;;;;;;14.95;100.00;100994.09;5011206;28;20187;-73
2021/08/23 03:19:20;;;;;;;4.87;4.47;;;;;;;14.96;100.00;100995.72;5011146;28;20633;-72
2021/08/23 03:21:45;;;;;;;4.37;4.07;;;;;;;14.87;100.00;100990.22;5011029;28;20204;-72
2021/08/23 03:24:11;;;;;;;5.17;4.77;;;;;;;14.92;100.00;101000.25;5010900;28;20190;-72
2021/08/23 03:26:37;;;;;;;4.27;3.97;;;;;;;14.96;100.00;100998.47;5011420;28;20176;-72
2021/08/23 03:29:03;;;;;;;6.07;5.10;;;;;;;14.95;100.00;100999.59;5011178;28;20188;-72
2021/08/23 03:31:28;;;;;;;4.67;4.30;;;;;;;15.06;100.00;101000.88;5011091;28;20184;-72
2021/08/23 03:33:53;;;;;;;4.67;4.27;;;;;;;14.99;100.00;101000.56;5010828;28;20191;-72
2021/08/23 03:36:19;;;;;;;5.43;4.93;;;;;;;14.92;100.00;100994.75;5011008;28;20179;-72
2021/08/23 03:38:47;;;;;;;4.47;4.10;;;;;;;14.88;100.00;100999.28;5011358;28;20173;-72
2021/08/23 03:41:13;;;;;;;4.87;4.47;;;;;;;14.85;100.00;100988.94;5011166;28;20251;-72
2021/08/23 03:43:38;;;;;;;5.77;5.27;;;;;;;14.88;100.00;100997.31;5010748;28;20180;-72
2021/08/23 03:46:04;;;;;;;5.00;4.60;;;;;;;14.80;100.00;100989.91;5011005;28;20173;-72
2021/08/23 03:48:29;;;;;;;5.20;4.80;;;;;;;14.79;100.00;100987.50;5009711;28;20179;-72
2021/08/23 03:50:54;;;;;;;5.50;4.90;;;;;;;14.75;100.00;100979.06;5010903;28;20308;-72
2021/08/23 03:53:20;;;;;;;6.50;5.23;;;;;;;14.94;100.00;100986.16;5010615;28;20173;-72
2021/08/23 03:55:45;;;;;;;5.37;4.87;;;;;;;14.93;100.00;100984.56;5010712;28;20550;-72
2021/08/23 03:58:10;;;;;;;5.10;4.60;;;;;;;15.08;100.00;100986.78;5010830;28;20255;-72
2021/08/23 04:00:36;;;;;;;4.93;4.50;;;;;;;15.05;100.00;100981.94;5010331;28;20192;-72
2021/08/23 04:03:01;;;;;;;6.00;4.70;;;;;;;15.03;100.00;100993.25;5010758;28;20228;-72
2021/08/23 04:05:26;;;;;;;6.00;4.63;;;;;;;15.05;100.00;100992.94;5009983;28;20187;-72
2021/08/23 04:07:52;;;;;;;6.17;5.57;;;;;;;14.80;100.00;100991.84;5010267;28;20267;-72
2021/08/23 04:10:17;;;;;;;6.03;5.53;;;;;;;14.72;100.00;100989.91;5010311;28;20183;-72
2021/08/23 04:12:43;;;;;;;6.53;5.93;;;;;;;14.72;100.00;100996.22;5011026;28;20686;-72
2021/08/23 04:15:08;;;;;;;7.63;5.97;;;;;;;14.71;100.00;100989.09;5013589;28;20188;-72
2021/08/23 04:17:34;;;;;;;8.67;7.77;;;;;;;14.68;100.00;101000.78;5013882;28;20180;-72
2021/08/23 04:20:01;;;;;;;8.03;7.33;;;;;;;14.85;100.00;100998.00;5013984;28;20181;-72
2021/08/23 04:22:27;;;;;;;7.67;6.97;;;;;;;14.90;100.00;100997.03;5013926;28;20570;-72
2021/08/23 04:24:52;;;;;;;7.77;7.13;;;;;;;14.86;100.00;101007.84;5013686;28;20177;-72
2021/08/23 04:27:17;;;;;;;8.27;7.57;;;;;;;14.80;100.00;101017.44;5013746;28;20177;-72
2021/08/23 04:29:43;;;;;;;8.23;7.43;;;;;;;14.63;100.00;101008.38;5014319;28;20207;-72
2021/08/23 04:32:09;;;;;;;12.57;7.67;;;;;;;14.82;100.00;101006.09;5013695;28;20165;-72
2021/08/23 04:34:34;;;;;;;7.10;6.50;;;;;;;14.79;100.00;101020.50;5013959;28;20177;-72
2021/08/23 04:37:03;;;;;;;7.40;6.70;;;;;;;14.90;100.00;101013.53;5013878;28;20184;-72
2021/08/23 04:39:30;;;;;;;8.73;7.60;;;;;;;14.77;100.00;101020.84;5013742;28;20251;-72
2021/08/23 04:41:55;;;;;;;7.80;7.10;;;;;;;14.75;100.00;101025.03;5013457;28;20207;-72
2021/08/23 04:44:21;;;;;;;8.93;7.30;;;;;;;14.69;100.00;101027.13;5013637;28;20172;-72
2021/08/23 04:46:49;;;;;;;7.33;6.73;;;;;;;14.64;100.00;101012.75;5013310;28;20177;-72
2021/08/23 04:49:14;;;;;;;8.47;7.40;;;;;;;14.60;100.00;101020.81;5013302;28;20520;-72
2021/08/23 04:51:39;;;;;;;7.83;7.13;;;;;;;14.55;100.00;101021.81;5013282;28;20184;-72
2021/08/23 04:54:05;;;;;;;7.13;6.53;;;;;;;14.65;100.00;101022.63;5012684;28;20172;-72
2021/08/23 04:56:30;;;;;;;8.27;7.57;;;;;;;14.66;100.00;101025.03;5013579;28;20567;-72
2021/08/23 04:58:55;;;;;;;6.90;6.30;;;;;;;14.65;100.00;101026.19;5013079;28;20259;-72
2021/08/23 05:01:21;;;;;;;7.30;6.70;;;;;;;14.67;100.00;101029.41;5012954;28;20208;-72
2021/08/23 05:03:46;;;;;;;7.57;6.97;;;;;;;14.57;100.00;101016.78;5012992;28;20177;-72
2021/08/23 05:06:11;;;;;;;10.07;6.87;;;;;;;14.61;100.00;101035.38;5012964;28;20588;-72
2021/08/23 05:08:37;;;;;;;9.63;6.20;;;;;;;14.63;100.00;101031.19;5013393;28;20183;-72
2021/08/23 05:11:02;;;;;;;7.33;6.73;;;;;;;14.72;100.00;101168.72;5012929;28;20199;-72
2021/08/23 05:13:27;;;;;;;6.93;6.23;;;;;;;14.70;100.00;101038.94;5012899;28;20574;-72
2021/08/23 05:15:53;;;;;;;6.20;5.67;;;;;;;14.66;100.00;101063.53;5012540;28;20235;-72
2021/08/23 05:18:18;;;;;;;7.13;6.53;;;;;;;14.62;100.00;101070.84;5013004;28;20181;-72
2021/08/23 05:20:43;;;;;;;7.80;6.77;;;;;;;14.61;100.00;101088.47;5011603;28;20181;-72
2021/08/23 05:23:09;;;;;;;9.60;6.77;;;;;;;14.67;100.00;101103.66;5012651;28;20667;-72
2021/08/23 05:25:36;;;;;;;6.57;6.07;;;;;;;14.67;100.00;101108.34;5011761;28;20239;-72
2021/08/23 05:28:02;;;;;;;7.03;6.43;;;;;;;14.70;100.00;101130.53;5012604;28;20515;-72
2021/08/23 05:30:27;;;;;;;10.00;7.00;;;;;;;14.73;100.00;101142.81;5012321;28;20235;-72
2021/08/23 05:32:53;;;;;;;6.83;6.27;;;;;;;14.85;100.00;101159.50;5012454;28;20181;-72
2021/08/23 05:35:18;;;;;;;8.07;7.37;;;;;;;14.83;100.00;101170.03;5010931;28;20176;-72
2021/08/23 05:37:44;;;;;;;7.50;6.70;;;;;;;14.69;100.00;101183.91;5012325;28;20172;-72
2021/08/23 05:40:10;;;;;;;7.60;6.90;;;;;;;14.66;100.00;101189.25;5012700;28;20176;-72
2021/08/23 05:42:35;;;;;;;9.33;6.33;;;;;;;14.83;100.00;101201.09;5012189;28;20675;-72
2021/08/23 05:45:01;;;;;;;7.17;6.43;;;;;;;14.66;100.00;101209.31;5011975;28;20176;-72
2021/08/23 05:47:26;;;;;;;7.90;6.87;;;;;;;14.74;100.00;101213.19;5012173;28;20247;-72
2021/08/23 05:49:51;;;;;;;8.47;7.20;;;;;;;14.70;100.00;101239.75;5012215;28;20176;-72
2021/08/23 05:52:17;;;;;;;8.03;7.27;;;;;;;14.82;100.00;101239.94;5012205;28;20207;-72
2021/08/23 05:54:44;;;;;;;7.33;6.50;;;;;;;14.79;100.00;101252.41;5011422;28;20255;-72
2021/08/23 05:57:09;;;;;;;7.83;7.13;;;;;;;14.77;100.00;101254.66;5012375;28;20267;-72
2021/08/23 05:59:34;;;;;;;9.73;7.27;;;;;;;14.77;100.00;101265.66;5011874;28;20628;-71
2021/08/23 06:02:00;;;;;;;9.50;7.17;;;;;;;14.88;100.00;101285.41;5011801;28;20667;-72
2021/08/23 06:04:26;;;;;;;7.30;6.70;;;;;;;14.79;100.00;101288.16;5011736;28;20188;-72
2021/08/23 06:06:52;;;;;;;7.60;6.00;;;;;;;14.82;100.00;101312.28;5011913;28;20177;-72
2021/08/23 06:09:19;;;;;;;6.63;5.93;;;;;;;14.65;100.00;101298.47;5011048;28;20283;-71
2021/08/23 06:11:45;;;;;;;5.87;5.33;;;;;;;14.57;100.00;101304.72;5009568;28;20239;-72
2021/08/23 06:14:11;;;;;;;7.53;6.83;;;;;;;14.54;100.00;101314.44;5012027;28;20177;-73
2021/08/23 06:16:36;;;;;;;6.57;6.07;;;;;;;14.48;100.00;101321.22;5003199;28;20195;-75
2021/08/23 06:19:02;;;;;;;6.77;6.17;;;;;;;14.46;100.00;101320.69;5006467;28;20184;-73
2021/08/23 06:21:28;;;;;;;7.50;6.60;;;;;;;14.55;100.00;101434.31;5012165;28;20289;-74
2021/08/23 06:23:53;;;;;;;6.80;6.00;;;;;;;14.44;100.00;101339.44;5011937;28;20180;-75
2021/08/23 06:26:19;;;;;;;6.20;5.70;;;;;;;14.44;100.00;101346.88;5011930;28;20263;-74
2021/08/23 06:28:44;;;;;;;6.47;5.83;;;;;;;14.42;100.00;101352.66;5010653;28;20304;-74
2021/08/23 06:31:09;;;;;;;6.33;5.83;;;;;;;14.59;100.00;101354.72;5011919;28;20185;-74
2021/08/23 06:33:35;;;;;;;6.27;5.67;;;;;;;14.44;100.00;101358.69;5011858;28;20184;-74
2021/08/23 06:36:01;;;;;;;6.93;6.30;;;;;;;14.38;100.00;101370.94;4999955;28;20184;-73
2021/08/23 06:38:27;;;;;;;6.10;5.50;;;;;;;14.44;100.00;101374.38;4999162;28;20227;-75
2021/08/23 06:40:52;;;;;;;5.27;4.87;;;;;;;14.43;100.00;101376.28;5002923;28;20224;-75
2021/08/23 06:43:17;;;;;;;5.43;5.03;;;;;;;14.52;100.00;101376.38;5009096;28;20204;-74
2021/08/23 06:45:43;;;;;;;5.67;5.10;;;;;;;14.57;100.00;101392.72;5002193;28;20259;-73
2021/08/23 06:48:08;;;;;;;6.83;5.77;;;;;;;14.50;100.00;101386.88;5002197;28;20267;-73
2021/08/23 06:50:34;;;;;;;5.93;5.33;;;;;;;14.48;100.00;101391.88;5006837;28;20180;-74
2021/08/23 06:52:59;;;;;;;6.33;5.53;;;;;;;14.48;100.00;101391.88;5011154;28;20173;-73
2021/08/23 06:55:24;;;;;;;5.80;4.90;;;;;;;14.56;100.00;101402.91;5011406;28;20176;-73
2021/08/23 06:57:50;;;;;;;5.63;5.07;;;;;;;14.72;100.00;101392.31;5011390;28;20198;-73
2021/08/23 07:00:15;;;;;;;8.07;5.73;;;;;;;14.54;100.00;101394.19;5011412;28;20612;-73
2021/08/23 07:02:41;;;;;;;5.10;4.70;;;;;;;14.61;100.00;101401.16;5011332;28;20717;-72
2021/08/23 07:05:08;;;;;;;7.13;5.07;;;;;;;14.50;100.00;101401.44;5003753;28;20196;-72
2021/08/23 07:07:33;;;;;;;5.10;4.70;;;;;;;14.48;100.00;101411.13;5001714;28;20258;-73
2021/08/23 07:09:59;;;;;;;4.97;4.57;;;;;;;14.58;100.00;101421.84;5001233;28;20181;-72
2021/08/23 07:12:24;;;;;;;7.33;4.70;;;;;;;14.62;100.00;101422.06;5000263;28;20623;-72
2021/08/23 07:14:50;;;;;;;5.43;4.40;;;;;;;14.77;100.00;101433.47;5000566;28;20608;-72
2021/08/23 07:17:15;;;;;;;4.03;3.73;;;;;;;14.78;100.00;101448.84;5000563;28;20181;-73
2021/08/23 07:19:40;;;;;;;4.50;4.10;;;;;;;14.82;100.00;101438.84;5002841;28;20195;-73
2021/08/23 07:22:06;;;;;;;4.00;3.70;;;;;;;14.73;100.00;101443.47;5010967;28;20215;-73
2021/08/23 07:24:31;;;;;;;4.07;3.77;;;;;;;14.78;100.00;101473.63;5011076;28;20212;-73
2021/08/23 07:26:56;;;;;;;4.53;4.03;;;;;;;14.74;100.00;101474.53;5011100;28;20267;-74
2021/08/23 07:29:24;;;;;;;4.17;3.83;;;;;;;14.84;100.00;101472.34;5010650;28;20181;-73
2021/08/23 07:31:49;;;;;;;4.30;3.60;;;;;;;14.77;100.00;101483.00;5009376;28;20702;-74
2021/08/23 07:34:15;;;;;;;4.57;3.57;;;;;;;14.72;100.00;101499.63;5010349;28;20176;-77
2021/08/23 07:36:40;;;;;;;5.47;4.10;;;;;;;14.76;100.00;101505.31;5010439;28;20489;-72
2021/08/23 07:39:05;;;;;;;6.07;3.43;;;;;;;14.72;100.00;101496.06;5010488;28;20185;-72
2021/08/23 07:41:31;;;;;;;4.50;3.53;;;;;;;14.73;100.00;101519.69;5009245;28;20200;-72
2021/08/23 07:43:56;;;;;;;3.50;3.20;;;;;;;14.77;100.00;101520.69;5010207;28;20598;-72
2021/08/23 07:46:21;;;;;;;5.40;3.70;;;;;;;14.71;100.00;101528.25;5010416;28;20177;-72
2021/08/23 07:48:47;;;;;;;3.57;3.23;;;;;;;14.71;100.00;101554.94;5013088;28;20470;-72
2021/08/23 07:51:15;;;;;;;3.90;3.60;;;;;;;14.72;100.00;101565.63;5014302;28;20635;-72
2021/08/23 07:53:40;;;;;;;4.00;3.60;;;;;;;14.71;100.00;101572.25;5012682;28;20585;-72
2021/08/23 07:56:06;;;;;;;3.80;3.50;;;;;;;14.71;100.00;101582.44;5012945;28;20224;-72
2021/08/23 07:58:32;;;;;;;3.80;3.50;;;;;;;14.79;100.00;101588.03;5014284;28;20164;-72
2021/08/23 08:00:57;;;;;;;5.43;3.53;;;;;;;14.84;100.00;101598.09;5014082;28;20634;-72
2021/08/23 08:03:22;;;;;;;7.07;3.60;;;;;;;14.91;100.00;101562.72;5012834;28;20455;-72
2021/08/23 08:05:48;;;;;;;5.53;3.63;;;;;;;14.96;100.00;101559.03;5013968;28;20534;-72
2021/08/23 08:08:13;;;;;;;3.20;2.83;;;;;;;14.97;100.00;101566.97;5014072;28;20534;-72
2021/08/23 08:10:39;;;;;;;4.03;3.73;;;;;;;14.94;100.00;101551.09;5014033;28;20635;-72
2021/08/23 08:13:06;;;;;;;3.47;3.20;;;;;;;15.02;100.00;101550.31;5013984;28;20636;-72
2021/08/23 08:15:32;;;;;;;4.23;3.20;;;;;;;15.06;100.00;101543.06;5013489;28;20263;-72
2021/08/23 08:17:57;;;;;;;4.07;3.10;;;;;;;15.07;100.00;101541.94;5013900;28;20317;-72
2021/08/23 08:20:23;;;;;;;3.97;3.37;;;;;;;15.09;100.00;101542.44;5013815;28;20196;-72
2021/08/23 08:22:48;;;;;;;3.60;2.90;;;;;;;15.16;100.00;101537.28;5013736;28;20212;-72
2021/08/23 08:25:14;;;;;;;4.90;3.60;;;;;;;15.21;100.00;101539.09;5013510;28;20538;-72
2021/08/23 08:27:39;;;;;;;5.70;4.07;;;;;;;15.22;100.00;101537.16;5013683;28;20632;-72
2021/08/23 08:30:06;;;;;;;5.53;3.40;;;;;;;15.31;100.00;101540.75;5013621;28;20169;-72
2021/08/23 08:32:32;;;;;;;3.07;2.77;;;;;;;15.38;100.00;101532.88;5013484;28;20180;-72
2021/08/23 08:34:57;;;;;;;2.97;2.77;;;;;;;15.45;100.00;101534.03;5013296;28;20671;-72
2021/08/23 08:37:22;;;;;;;4.40;3.40;;;;;;;15.39;100.00;101535.31;5013572;28;20538;-73
2021/08/23 08:39:48;;;;;;;6.80;3.37;;;;;;;15.50;100.00;101544.09;5013557;28;20177;-72
2021/08/23 08:42:16;;;;;;;4.07;3.73;;;;;;;15.48;100.00;101536.16;5013429;28;20208;-72
2021/08/23 08:44:42;;;;;;;3.87;3.57;;;;;;;15.51;100.00;101537.47;5013201;28;20200;-72
2021/08/23 08:47:09;;;;;;;6.30;3.70;;;;;;;15.53;100.00;101540.72;5013220;28;20264;-72
2021/08/23 08:49:37;;;;;;;5.27;3.60;;;;;;;15.50;100.00;101538.59;5012014;28;20271;-72
2021/08/23 08:52:04;;;;;;;4.17;3.27;;;;;;;15.56;100.00;101542.00;5013354;28;20176;-72
2021/08/23 08:54:29;;;;;;;2.93;2.73;;;;;;;15.58;100.00;101537.00;5013133;28;20184;-72
2021/08/23 08:56:54;;;;;;;6.63;2.80;;;;;;;15.57;100.00;101543.63;5013095;28;20603;-72
2021/08/23 08:59:20;;;;;;;5.70;3.47;;;;;;;15.66;100.00;101547.28;5012008;28;20183;-72
2021/08/23 09:01:48;;;;;;;3.63;3.33;;;;;;;15.70;100.00;101538.03;5013303;28;20232;-72
2021/08/23 09:04:13;;;;;;;6.60;3.20;;;;;;;15.76;100.00;101545.03;5011590;28;20388;-73
2021/08/23 09:06:40;;;;;;;3.60;3.40;;;;;;;15.70;100.00;101531.72;5013001;28;20177;-72
2021/08/23 09:09:13;;;;;;;3.53;3.23;;;;;;;15.71;100.00;101539.66;5012962;28;20176;-72
2021/08/23 09:11:40;;;;;;;3.10;2.90;;;;;;;15.82;100.00;101540.19;5012809;28;20597;-72
2021/08/23 09:14:08;;;;;;;6.67;3.53;;;;;;;15.82;100.00;101539.38;5012646;28;20207;-72
2021/08/23 09:16:41;;;;;;;3.93;3.67;;;;;;;15.90;100.00;101536.63;5012685;28;20196;-72
2021/08/23 09:19:07;;;;;;;3.50;3.03;;;;;;;15.96;100.00;101549.16;5012829;28;20196;-72
2021/08/23 09:21:38;;;;;;;3.97;3.03;;;;;;;16.10;100.00;101546.25;5012716;28;20347;-72
2021/08/23 09:24:20;;;;;;;3.20;3.00;;;;;;;16.19;100.00;101538.81;5012372;28;20184;-72
2021/08/23 09:26:46;;;;;;;3.20;2.83;;;;;;;16.32;100.00;101548.88;5012637;28;20202;-72
2021/08/23 09:29:11;;;;;;;3.37;3.13;;;;;;;16.43;100.00;101552.13;5012534;28;20679;-73
2021/08/23 09:31:38;;;;;;;5.10;3.40;;;;;;;16.46;100.00;101543.22;5012485;28;20215;-73
2021/08/23 09:34:06;;;;;;;3.63;3.30;;;;;;;16.43;100.00;101554.91;5012218;28;20180;-72
2021/08/23 09:36:32;;;;;;;4.07;3.77;;;;;;;16.47;100.00;101536.56;5011036;28;20538;-72
2021/08/23 09:38:59;;;;;;;4.53;3.17;;;;;;;16.62;100.00;101536.06;5012918;28;20180;-72
2021/08/23 09:41:24;;;;;;;3.30;2.90;;;;;;;16.66;100.00;101534.28;5012272;28;20208;-72
2021/08/23 09:44:10;;;;;;;3.70;3.07;;;;;;;16.81;100.00;101544.06;5012031;28;20181;-72
2021/08/23 09:46:36;;;;;;;5.63;3.70;;;;;;;16.96;100.00;101534.44;5012261;28;20173;-73
2021/08/23 09:49:13;;;;;;;4.00;3.40;;;;;;;17.06;100.00;101539.59;5012253;28;20227;-72
2021/08/23 09:51:41;;;;;;;3.07;2.87;;;;;;;17.09;100.00;101533.44;5012689;28;20757;-72
2021/08/23 09:54:10;;;;;;;3.43;3.13;;;;;;;17.09;100.00;101524.34;5011370;28;20183;-72
2021/08/23 09:56:41;;;;;;;3.90;3.50;;;;;;;17.02;100.00;101524.84;5011976;28;20180;-72
2021/08/23 09:59:11;;;;;;;2.97;2.67;;;;;;;17.08;100.00;101522.72;5011961;28;20180;-72
2021/08/23 10:01:36;;;;;;;3.33;2.93;;;;;;;17.22;100.00;101524.16;5011913;28;20207;-73
2021/08/23 10:04:06;;;;;;;3.70;2.87;;;;;;;17.22;100.00;101537.97;5011561;28;20172;-73
2021/08/23 10:06:33;;;;;;;3.50;3.10;;;;;;;17.28;100.00;101530.31;5011856;28;20180;-73
2021/08/23 10:09:03;;;;;;;3.10;2.80;;;;;;;17.39;100.00;101536.28;5011773;28;20177;-72
2021/08/23 10:11:31;;;;;;;6.13;2.97;;;;;;;17.35;100.00;101527.00;5011497;28;20184;-72
2021/08/23 10:13:58;;;;;;;3.53;3.23;;;;;;;17.23;100.00;101536.81;5010284;28;20260;-72
2021/08/23 10:16:24;;;;;;;3.23;2.97;;;;;;;17.32;100.00;101527.69;5011599;28;20200;-72
2021/08/23 10:18:49;;;;;;;2.40;2.20;;;;;;;17.27;100.00;101527.88;5011720;28;20222;-72
2021/08/23 10:21:16;;;;;;;2.97;2.67;;;;;;;17.42;100.00;101530.09;5011596;28;20176;-72
2021/08/23 10:23:43;;;;;;;3.17;2.37;;;;;;;17.62;100.00;101543.16;5011389;28;20172;-73
2021/08/23 10:26:08;;;;;;;2.87;2.50;;;;;;;17.89;100.00;101544.69;5011477;28;20181;-72
2021/08/23 10:28:36;;;;;;;3.07;2.27;;;;;;;18.14;100.00;101552.03;5011529;28;20341;-72
2021/08/23 10:31:07;;;;;;;2.77;2.23;;;;;;;18.18;100.00;101535.56;5011470;28;20305;-73
2021/08/23 10:33:36;;;;;;;3.70;2.27;;;;;;;18.30;100.00;101545.91;5011461;28;20184;-72
2021/08/23 10:36:02;;;;;;;1.80;1.70;;;;;;;18.21;100.00;101532.13;5011563;28;20173;-72
2021/08/23 10:38:28;;;;;;;2.00;1.73;;;;;;;18.26;100.00;101540.22;5011427;28;20212;-72
2021/08/23 10:41:15;;;;;;;2.67;1.80;;;;;;;18.51;100.00;101543.13;5010085;28;20207;-72
2021/08/23 10:43:49;;;;;;;2.00;1.80;;;;;;;18.83;100.00;101550.69;5011205;28;20183;-73
2021/08/23 10:46:23;;;;;;;2.20;1.53;;;;;;;18.76;100.00;101563.47;5011683;28;20650;-73
2021/08/23 10:48:50;;;;;;;1.53;1.43;;;;;;;18.75;100.00;101537.72;5011482;28;20183;-73
2021/08/23 10:51:29;;;;;;;1.87;1.70;;;;;;;18.57;100.00;101522.41;5011709;28;20183;-72
2021/08/23 10:53:54;;;;;;;1.80;1.70;;;;;;;18.54;100.00;101518.38;5010673;28;20180;-72
2021/08/23 10:56:23;;;;;;;1.33;1.30;;;;;;;18.46;97.70;101510.13;5011159;28;20181;-73
2021/08/23 10:58:50;;;;;;;2.30;0.97;;;;;;;18.44;94.62;101516.81;5010041;28;20571;-72
2021/08/23 11:01:20;;;;;;;0.73;0.73;;;;;;;18.35;86.32;101513.28;5011049;28;20527;-72
2021/08/23 11:03:45;;;;;;;1.30;1.10;;;;;;;18.46;87.36;101519.22;5010791;28;20172;-73
2021/08/23 11:06:11;;;;;;;1.03;0.90;;;;;;;18.48;87.46;101516.13;5010951;28;20243;-72
2021/08/23 11:08:36;;;;;;;0.93;0.87;;;;;;;18.65;90.08;101516.81;5011022;28;20258;-72
2021/08/23 11:11:12;;;;;;;1.27;1.07;;;;;;;18.93;88.30;101518.97;5010962;28;20188;-72
2021/08/23 11:13:41;;;;;;;1.20;1.10;;;;;;;19.14;87.09;101513.41;5010638;28;20211;-72